createdAt,value
2019-01-19T00:01:15.977Z,95024.07
2019-01-19T00:03:42.308Z,95027.17
2019-01-19T00:06:08.651Z,95015.88
2019-01-19T00:08:34.986Z,95020.30
2019-01-19T00:11:01.319Z,95020.97
2019-01-19T00:13:27.640Z,95020.52
2019-01-19T00:15:53.962Z,95018.86
2019-01-19T00:18:20.307Z,95022.84
2019-01-19T00:20:46.633Z,95024.95
2019-01-19T00:23:12.966Z,95024.91
2019-01-19T00:25:39.297Z,95028.57
2019-01-19T00:28:05.695Z,95028.30
2019-01-19T00:30:32.026Z,95028.30
2019-01-19T00:32:58.424Z,95032.16
2019-01-19T00:35:24.705Z,95037.52
2019-01-19T00:37:51.040Z,95031.33
2019-01-19T00:40:17.382Z,95032.22
2019-01-19T00:42:43.709Z,95037.52
2019-01-19T00:45:10.218Z,95039.47
2019-01-19T00:47:36.665Z,95032.11
2019-01-19T00:50:03.011Z,95045.78
2019-01-19T00:52:29.448Z,95042.84
2019-01-19T00:54:55.822Z,95041.56
2019-01-19T00:57:22.118Z,95036.30
2019-01-19T00:59:48.447Z,95034.98
2019-01-19T01:02:14.769Z,95033.48
2019-01-19T01:04:41.192Z,95036.27
2019-01-19T01:07:07.541Z,95039.08
2019-01-19T01:09:36.182Z,95037.00
2019-01-19T01:12:02.548Z,95032.63
2019-01-19T01:14:28.876Z,95033.46
2019-01-19T01:16:55.207Z,95031.35
2019-01-19T01:19:21.526Z,95031.81
2019-01-19T01:21:47.892Z,95031.81
2019-01-19T01:24:14.215Z,95032.95
2019-01-19T01:26:41.787Z,95033.31
2019-01-19T01:29:06.950Z,95033.98
2019-01-19T01:31:33.336Z,95039.86
2019-01-19T01:33:59.704Z,95040.20
2019-01-19T01:36:26.056Z,95041.23
2019-01-19T01:38:52.439Z,95038.30
2019-01-19T01:41:18.767Z,95037.84
2019-01-19T01:43:45.114Z,95038.87
2019-01-19T01:46:11.450Z,95039.00
2019-01-19T01:48:37.781Z,95045.88
2019-01-19T01:51:04.134Z,95046.80
2019-01-19T01:53:30.452Z,95047.02
2019-01-19T01:55:56.830Z,95042.03
2019-01-19T01:58:23.196Z,95046.89
2019-01-19T02:00:49.535Z,95046.31
2019-01-19T02:03:15.875Z,95048.76
2019-01-19T02:05:42.232Z,95047.84
2019-01-19T02:08:08.685Z,95047.11
2019-01-19T02:10:35.023Z,95053.19
2019-01-19T02:13:01.354Z,95049.06
2019-01-19T02:15:27.692Z,95043.47
2019-01-19T02:17:54.021Z,95044.51
2019-01-19T02:20:20.352Z,95045.80
2019-01-19T02:22:46.683Z,95036.80
2019-01-19T02:25:13.017Z,95039.73
2019-01-19T02:27:39.336Z,95045.09
2019-01-19T02:30:05.687Z,95041.33
2019-01-19T02:32:32.009Z,95041.48
2019-01-19T02:34:58.368Z,95042.06
2019-01-19T02:37:24.699Z,95042.16
2019-01-19T02:39:51.040Z,95043.68
2019-01-19T02:42:17.370Z,95043.89
2019-01-19T02:44:43.712Z,95044.63
2019-01-19T02:47:10.035Z,95044.27
2019-01-19T02:49:36.362Z,95040.72
2019-01-19T02:52:02.746Z,95038.06
2019-01-19T02:54:29.030Z,95053.55
2019-01-19T02:56:55.360Z,95044.94
2019-01-19T02:59:21.700Z,95046.13
2019-01-19T03:01:48.040Z,95041.75
2019-01-19T03:04:14.392Z,95044.23
2019-01-19T03:06:40.709Z,95047.47
2019-01-19T03:09:07.133Z,95040.02
2019-01-19T03:11:33.463Z,95042.34
2019-01-19T03:13:59.774Z,95043.31
2019-01-19T03:16:26.120Z,95047.53
2019-01-19T03:18:52.541Z,95040.20
2019-01-19T03:21:18.886Z,95033.34
2019-01-19T03:23:45.264Z,95034.62
2019-01-19T03:26:11.612Z,95038.48
2019-01-19T03:28:37.958Z,95035.73
2019-01-19T03:31:04.292Z,95035.27
2019-01-19T03:33:30.623Z,95043.52
2019-01-19T03:36:04.127Z,95045.54
2019-01-19T03:38:23.388Z,95046.09
2019-01-19T03:40:49.754Z,95046.45
2019-01-19T03:43:16.090Z,95042.73
2019-01-19T03:45:42.452Z,95043.19
2019-01-19T03:48:08.822Z,95041.99
2019-01-19T03:50:35.183Z,95039.87
2019-01-19T03:53:01.506Z,95040.70
2019-01-19T03:55:27.909Z,95045.02
2019-01-19T03:57:54.198Z,95041.74
2019-01-19T04:00:20.537Z,95042.20
2019-01-19T04:02:46.870Z,95047.58
2019-01-19T04:05:13.222Z,95051.19
2019-01-19T04:07:39.555Z,95054.37
2019-01-19T04:10:05.933Z,95053.14
2019-01-19T04:12:32.247Z,95056.78
2019-01-19T04:14:58.570Z,95057.97
2019-01-19T04:17:24.885Z,95056.98
2019-01-19T04:19:51.234Z,95054.42
2019-01-19T04:22:17.570Z,95059.47
2019-01-19T04:24:43.956Z,95059.09
2019-01-19T04:27:10.308Z,95068.91
2019-01-19T04:29:36.666Z,95073.67
2019-01-19T04:32:03.024Z,95078.65
2019-01-19T04:34:29.384Z,95078.81
2019-01-19T04:36:55.755Z,95084.27
2019-01-19T04:39:22.315Z,95085.80
2019-01-19T04:41:48.654Z,95079.02
2019-01-19T04:44:15.019Z,95082.16
2019-01-19T04:46:41.385Z,95081.80
2019-01-19T04:49:07.767Z,95087.84
2019-01-19T04:51:34.150Z,95092.31
2019-01-19T04:54:00.531Z,95096.37
2019-01-19T04:56:26.859Z,95107.58
2019-01-19T04:58:53.244Z,95099.77
2019-01-19T05:01:19.574Z,95103.61
2019-01-19T05:03:45.904Z,95096.03
2019-01-19T05:06:12.798Z,95101.88
2019-01-19T05:08:38.616Z,95099.14
2019-01-19T05:11:04.998Z,95103.36
2019-01-19T05:13:31.332Z,95100.09
2019-01-19T05:15:57.663Z,95106.51
2019-01-19T05:18:24.041Z,95106.76
2019-01-19T05:20:50.424Z,95107.30
2019-01-19T05:23:16.846Z,95099.80
2019-01-19T05:25:43.141Z,95098.44
2019-01-19T05:28:09.467Z,95100.47
2019-01-19T05:30:35.850Z,95099.72
2019-01-19T05:33:02.294Z,95105.02
2019-01-19T05:35:28.625Z,95108.24
2019-01-19T05:37:54.965Z,95105.93
2019-01-19T05:40:21.286Z,95109.53
2019-01-19T05:42:47.618Z,95109.86
2019-01-19T05:45:14.002Z,95108.08
2019-01-19T05:47:40.547Z,95108.17
2019-01-19T05:50:06.886Z,95115.20
2019-01-19T05:52:33.215Z,95112.30
2019-01-19T05:54:59.547Z,95118.92
2019-01-19T05:57:25.872Z,95109.16
2019-01-19T05:59:52.203Z,95118.55
2019-01-19T06:02:18.534Z,95116.53
2019-01-19T06:04:44.866Z,95121.58
2019-01-19T06:07:11.230Z,95123.31
2019-01-19T06:09:37.563Z,95125.52
2019-01-19T06:12:03.934Z,95126.25
2019-01-19T06:14:30.266Z,95129.94
2019-01-19T06:16:56.608Z,95136.97
2019-01-19T06:19:22.975Z,95132.95
2019-01-19T06:21:49.303Z,95138.83
2019-01-19T06:24:15.645Z,95145.33
2019-01-19T06:26:42.025Z,95145.33
2019-01-19T06:29:08.343Z,95142.06
2019-01-19T06:31:34.725Z,95142.39
2019-01-19T06:34:01.045Z,95141.85
2019-01-19T06:36:27.373Z,95152.32
2019-01-19T06:38:53.763Z,95145.53
2019-01-19T06:41:20.194Z,95144.88
2019-01-19T06:43:46.626Z,95143.34
2019-01-19T06:46:12.945Z,95142.06
2019-01-19T06:48:39.276Z,95145.45
2019-01-19T06:51:05.611Z,95147.07
2019-01-19T06:53:32.001Z,95150.09
2019-01-19T06:55:58.342Z,95156.17
2019-01-19T06:58:24.712Z,95152.32
2019-01-19T07:00:51.042Z,95153.41
2019-01-19T07:03:17.387Z,95156.42
2019-01-19T07:05:43.721Z,95157.20
2019-01-19T07:08:10.055Z,95156.71
2019-01-19T07:10:36.379Z,95160.36
2019-01-19T07:13:02.739Z,95160.10
2019-01-19T07:15:29.078Z,95162.02
2019-01-19T07:17:55.407Z,95164.13
2019-01-19T07:20:21.780Z,95160.84
2019-01-19T07:22:48.366Z,95160.64
2019-01-19T07:25:14.713Z,95160.36
2019-01-19T07:27:41.149Z,95164.95
2019-01-19T07:30:07.537Z,95162.18
2019-01-19T07:32:33.824Z,95166.32
2019-01-19T07:35:01.362Z,95162.18
2019-01-19T07:37:26.495Z,95164.83
2019-01-19T07:39:52.833Z,95172.91
2019-01-19T07:42:19.165Z,95170.80
2019-01-19T07:44:45.524Z,95179.41
2019-01-19T07:47:11.856Z,95184.91
2019-01-19T07:49:38.267Z,95180.69
2019-01-19T07:52:04.633Z,95182.09
2019-01-19T07:54:30.949Z,95179.77
2019-01-19T07:56:57.305Z,95181.43
2019-01-19T07:59:23.704Z,95181.97
2019-01-19T08:01:50.046Z,95176.50
2019-01-19T08:04:16.363Z,95176.67
2019-01-19T08:06:42.697Z,95185.73
2019-01-19T08:09:09.036Z,95188.09
2019-01-19T08:11:35.418Z,95182.71
2019-01-19T08:14:01.759Z,95192.06
2019-01-19T08:16:28.184Z,95197.45
2019-01-19T08:18:54.435Z,95193.81
2019-01-19T08:21:20.761Z,95194.31
2019-01-19T08:23:47.144Z,95204.33
2019-01-19T08:26:13.503Z,95200.48
2019-01-19T08:28:39.900Z,95195.80
2019-01-19T08:31:06.349Z,95206.06
2019-01-19T08:33:32.702Z,95197.14
2019-01-19T08:35:59.029Z,95198.63
2019-01-19T08:38:25.391Z,95203.21
2019-01-19T08:40:51.717Z,95204.30
2019-01-19T08:43:18.091Z,95204.95
2019-01-19T08:45:44.482Z,95201.53
2019-01-19T08:48:10.815Z,95208.86
2019-01-19T08:50:37.147Z,95213.53
2019-01-19T08:53:03.499Z,95219.12
2019-01-19T08:55:29.830Z,95219.95
2019-01-19T08:57:56.204Z,95222.41
2019-01-19T09:00:22.566Z,95224.26
2019-01-19T09:02:48.938Z,95222.77
2019-01-19T09:05:15.261Z,95227.00
2019-01-19T09:07:41.594Z,95227.53
2019-01-19T09:10:07.951Z,95227.70
2019-01-19T09:12:34.334Z,95232.95
2019-01-19T09:15:00.660Z,95231.67
2019-01-19T09:17:27.060Z,95228.08
2019-01-19T09:19:53.446Z,95230.07
2019-01-19T09:22:19.768Z,95231.73
2019-01-19T09:24:46.099Z,95227.67
2019-01-19T09:27:12.466Z,95225.88
2019-01-19T09:29:38.840Z,95231.16
2019-01-19T09:32:05.186Z,95221.71
2019-01-19T09:34:33.981Z,95226.51
2019-01-19T09:36:57.894Z,95218.69
2019-01-19T09:39:24.217Z,95218.48
2019-01-19T09:41:50.546Z,95213.55
2019-01-19T09:44:16.905Z,95208.58
2019-01-19T09:46:43.235Z,95206.84
2019-01-19T09:49:09.584Z,95206.10
2019-01-19T09:51:35.973Z,95205.81
2019-01-19T09:54:02.305Z,95203.45
2019-01-19T09:56:28.740Z,95196.83
2019-01-19T09:58:55.037Z,95199.67
2019-01-19T10:01:21.354Z,95193.89
2019-01-19T10:03:47.756Z,95192.80
2019-01-19T10:06:14.086Z,95188.12
2019-01-19T10:08:40.465Z,95187.20
2019-01-19T10:11:06.895Z,95177.55
2019-01-19T10:13:33.215Z,95183.98
2019-01-19T10:15:59.546Z,95176.48
2019-01-19T10:18:25.864Z,95168.66
2019-01-19T10:20:52.196Z,95165.88
2019-01-19T10:23:18.534Z,95166.83
2019-01-19T10:25:44.871Z,95159.46
2019-01-19T10:28:11.233Z,95164.97
2019-01-19T10:30:37.584Z,95165.67
2019-01-19T10:33:03.991Z,95161.57
2019-01-19T10:35:30.423Z,95155.06
2019-01-19T10:37:56.976Z,95164.64
2019-01-19T10:40:23.281Z,95155.77
2019-01-19T10:42:49.656Z,95155.52
2019-01-19T10:45:15.986Z,95159.50
2019-01-19T10:47:42.327Z,95151.00
2019-01-19T10:50:08.650Z,95147.86
2019-01-19T10:52:34.980Z,95141.69
2019-01-19T10:55:01.308Z,95141.06
2019-01-19T10:57:27.795Z,95140.98
2019-01-19T10:59:54.145Z,95144.83
2019-01-19T11:02:20.486Z,95138.16
2019-01-19T11:04:46.839Z,95136.30
2019-01-19T11:07:13.208Z,95134.55
2019-01-19T11:09:39.532Z,95129.42
2019-01-19T11:12:05.862Z,95134.34
2019-01-19T11:14:32.191Z,95130.70
2019-01-19T11:16:58.520Z,95127.31
2019-01-19T11:19:24.846Z,95119.52
2019-01-19T11:21:51.176Z,95119.85
2019-01-19T11:24:17.512Z,95123.16
2019-01-19T11:26:43.914Z,95120.80
2019-01-19T11:29:10.241Z,95124.53
2019-01-19T11:31:36.598Z,95127.47
2019-01-19T11:34:03.005Z,95130.13
2019-01-19T11:36:29.324Z,95123.95
2019-01-19T11:38:55.662Z,95114.50
2019-01-19T11:41:22.070Z,95113.80
2019-01-19T11:43:48.347Z,95113.80
2019-01-19T11:46:14.678Z,95118.72
2019-01-19T11:48:41.094Z,95114.63
2019-01-19T11:51:07.423Z,95115.58
2019-01-19T11:53:33.696Z,95109.12
2019-01-19T11:56:00.034Z,95097.80
2019-01-19T11:58:26.413Z,95100.37
2019-01-19T12:00:52.798Z,95103.31
2019-01-19T12:03:19.095Z,95101.56
2019-01-19T12:05:45.431Z,95100.28
2019-01-19T12:08:19.219Z,95101.56
2019-01-19T12:10:38.114Z,95095.70
2019-01-19T12:13:04.501Z,95089.27
2019-01-19T12:15:30.858Z,95089.89
2019-01-19T12:17:57.207Z,95090.01
2019-01-19T12:20:23.601Z,95087.98
2019-01-19T12:22:49.918Z,95092.37
2019-01-19T12:25:16.247Z,95090.38
2019-01-19T12:27:42.635Z,95094.48
2019-01-19T12:30:08.956Z,95086.03
2019-01-19T12:32:35.289Z,95086.98
2019-01-19T12:35:01.691Z,95081.27
2019-01-19T12:37:28.019Z,95081.62
2019-01-19T12:39:54.360Z,95075.67
2019-01-19T12:42:20.687Z,95075.30
2019-01-19T12:44:47.056Z,95074.02
2019-01-19T12:47:13.400Z,95069.70
2019-01-19T12:49:39.730Z,95073.19
2019-01-19T12:52:06.135Z,95069.25
2019-01-19T12:54:32.449Z,95065.27
2019-01-19T12:56:58.795Z,95067.50
2019-01-19T12:59:25.177Z,95063.28
2019-01-19T13:01:51.551Z,95062.83
2019-01-19T13:04:17.879Z,95061.91
2019-01-19T13:06:45.331Z,95065.77
2019-01-19T13:09:12.603Z,95061.55
2019-01-19T13:11:38.064Z,95059.92
2019-01-19T13:14:04.457Z,95061.78
2019-01-19T13:16:30.815Z,95058.84
2019-01-19T13:18:57.146Z,95058.75
2019-01-19T13:21:23.522Z,95063.07
2019-01-19T13:23:49.886Z,95059.58
2019-01-19T13:26:16.213Z,95056.19
2019-01-19T13:28:42.780Z,95053.71
2019-01-19T13:31:08.902Z,95051.66
2019-01-19T13:33:35.293Z,95051.05
2019-01-19T13:36:01.655Z,95055.73
2019-01-19T13:38:27.977Z,95049.31
2019-01-19T13:40:54.305Z,95053.71
2019-01-19T13:43:20.638Z,95051.27
2019-01-19T13:45:47.052Z,95052.92
2019-01-19T13:48:13.495Z,95055.82
2019-01-19T13:50:39.932Z,95057.23
2019-01-19T13:53:06.268Z,95062.37
2019-01-19T13:55:32.590Z,95054.99
2019-01-19T13:57:58.928Z,95057.69
2019-01-19T14:00:25.269Z,95050.44
2019-01-19T14:02:51.625Z,95052.42
2019-01-19T14:05:18.000Z,95049.86
2019-01-19T14:07:44.368Z,95051.75
2019-01-19T14:10:10.719Z,95050.22
2019-01-19T14:12:37.053Z,95046.13
2019-01-19T14:15:03.407Z,95041.58
2019-01-19T14:17:29.812Z,95041.36
2019-01-19T14:19:56.141Z,95038.42
2019-01-19T14:22:23.161Z,95037.14
2019-01-19T14:24:48.802Z,95037.23
2019-01-19T14:27:15.153Z,95044.94
2019-01-19T14:29:41.477Z,95044.48
2019-01-19T14:32:07.805Z,95040.53
2019-01-19T14:34:34.137Z,95039.70
2019-01-19T14:37:00.471Z,95038.64
2019-01-19T14:39:26.868Z,95044.69
2019-01-19T14:41:53.161Z,95042.49
2019-01-19T14:44:19.514Z,95040.38
2019-01-19T14:46:45.842Z,95040.84
2019-01-19T14:49:12.216Z,95045.15
2019-01-19T14:51:38.592Z,95047.48
2019-01-19T14:54:04.952Z,95042.58
2019-01-19T14:56:31.288Z,95040.59
2019-01-19T14:58:57.663Z,95038.39
2019-01-19T15:01:24.024Z,95054.42
2019-01-19T15:03:50.352Z,95048.67
2019-01-19T15:06:16.819Z,95046.80
2019-01-19T15:08:43.113Z,95040.14
2019-01-19T15:11:09.447Z,95040.97
2019-01-19T15:13:35.898Z,95041.88
2019-01-19T15:16:02.308Z,95048.17
2019-01-19T15:18:28.621Z,95046.44
2019-01-19T15:20:54.891Z,95048.67
2019-01-19T15:23:21.310Z,95052.98
2019-01-19T15:25:47.704Z,95050.62
2019-01-19T15:28:14.047Z,95050.50
2019-01-19T15:30:40.345Z,95050.50
2019-01-19T15:33:06.729Z,95050.17
2019-01-19T15:35:33.064Z,95051.08
2019-01-19T15:37:59.397Z,95048.88
2019-01-19T15:40:25.725Z,95046.41
2019-01-19T15:42:52.067Z,95042.46
2019-01-19T15:45:18.405Z,95049.80
2019-01-19T15:47:44.776Z,95052.37
2019-01-19T15:50:11.099Z,95049.80
2019-01-19T15:52:37.469Z,95057.50
2019-01-19T15:55:03.807Z,95060.08
2019-01-19T15:57:30.223Z,95060.16
2019-01-19T15:59:56.542Z,95054.41
2019-01-19T16:02:22.875Z,95057.72
2019-01-19T16:04:49.240Z,95053.50
2019-01-19T16:07:15.578Z,95048.94
2019-01-19T16:09:41.944Z,95056.06
2019-01-19T16:12:08.266Z,95056.44
2019-01-19T16:14:34.607Z,95057.72
2019-01-19T16:17:00.986Z,95063.41
2019-01-19T16:19:27.317Z,95054.41
2019-01-19T16:21:53.630Z,95064.23
2019-01-19T16:24:19.965Z,95060.59
2019-01-19T16:26:46.300Z,95063.52
2019-01-19T16:29:12.735Z,95063.77
2019-01-19T16:31:39.128Z,95069.12
2019-01-19T16:34:05.458Z,95070.77
2019-01-19T16:36:32.133Z,95068.75
2019-01-19T16:38:58.223Z,95073.80
2019-01-19T16:41:24.552Z,95073.89
2019-01-19T16:43:50.904Z,95076.37
2019-01-19T16:46:17.234Z,95081.13
2019-01-19T16:48:43.554Z,95081.25
2019-01-19T16:51:09.886Z,95084.98
2019-01-19T16:53:36.585Z,95082.42
2019-01-19T16:56:02.895Z,95091.53
2019-01-19T16:58:29.269Z,95088.59
2019-01-19T17:00:55.606Z,95088.22
2019-01-19T17:03:21.938Z,95096.75
2019-01-19T17:05:48.282Z,95098.86
2019-01-19T17:08:14.618Z,95097.42
2019-01-19T17:10:40.966Z,95104.91
2019-01-19T17:13:07.297Z,95106.41
2019-01-19T17:15:33.642Z,95098.25
2019-01-19T17:17:59.970Z,95101.27
2019-01-19T17:20:26.299Z,95103.38
2019-01-19T17:22:52.691Z,95113.90
2019-01-19T17:25:19.025Z,95108.88
2019-01-19T17:27:45.289Z,95112.73
2019-01-19T17:30:11.632Z,95114.48
2019-01-19T17:32:37.994Z,95113.77
2019-01-19T17:35:04.322Z,95110.63
2019-01-19T17:37:30.649Z,95118.14
2019-01-19T17:39:56.982Z,95120.53
2019-01-19T17:42:23.309Z,95114.57
2019-01-19T17:44:49.636Z,95125.66
2019-01-19T17:47:15.964Z,95120.65
2019-01-19T17:49:42.289Z,95115.57
2019-01-19T17:52:08.647Z,95123.27
2019-01-19T17:54:35.017Z,95125.02
2019-01-19T17:57:01.346Z,95125.68
2019-01-19T17:59:27.680Z,95121.63
2019-01-19T18:01:54.088Z,95124.31
2019-01-19T18:04:20.350Z,95118.34
2019-01-19T18:06:46.678Z,95124.50
2019-01-19T18:09:13.059Z,95123.85
2019-01-19T18:11:39.361Z,95130.27
2019-01-19T18:14:05.702Z,95125.23
2019-01-19T18:16:32.040Z,95126.88
2019-01-19T18:18:58.428Z,95133.30
2019-01-19T18:21:24.727Z,95133.88
2019-01-19T18:23:51.056Z,95124.27
2019-01-19T18:26:17.434Z,95121.03
2019-01-19T18:28:43.801Z,95119.84
2019-01-19T18:31:10.132Z,95118.92
2019-01-19T18:33:36.479Z,95128.38
2019-01-19T18:36:02.874Z,95125.55
2019-01-19T18:38:29.225Z,95133.05
2019-01-19T18:40:55.579Z,95131.02
2019-01-19T18:43:21.960Z,95138.18
2019-01-19T18:45:48.276Z,95131.39
2019-01-19T18:48:14.608Z,95124.27
2019-01-19T18:50:41.011Z,95126.83
2019-01-19T18:53:07.357Z,95107.92
2019-01-19T18:55:33.689Z,95123.19
2019-01-19T18:58:00.028Z,95116.56
2019-01-19T19:00:26.355Z,95124.11
2019-01-19T19:02:52.796Z,95119.88
2019-01-19T19:05:19.129Z,95122.11
2019-01-19T19:07:45.488Z,95114.59
2019-01-19T19:10:11.825Z,95119.55
2019-01-19T19:12:38.212Z,95122.29
2019-01-19T19:15:04.592Z,95126.05
2019-01-19T19:17:30.949Z,95121.21
2019-01-19T19:19:57.293Z,95117.64
2019-01-19T19:22:23.627Z,95123.11
2019-01-19T19:24:49.988Z,95124.61
2019-01-19T19:27:16.319Z,95130.36
2019-01-19T19:29:42.646Z,95127.62
2019-01-19T19:32:09.008Z,95123.44
2019-01-19T19:34:35.339Z,95128.37
2019-01-19T19:37:01.679Z,95122.98
2019-01-19T19:39:28.010Z,95121.70
2019-01-19T19:41:54.332Z,95126.92
2019-01-19T19:44:20.649Z,95126.01
2019-01-19T19:46:47.022Z,95125.18
2019-01-19T19:49:13.362Z,95124.10
2019-01-19T19:51:39.703Z,95134.16
2019-01-19T19:54:06.070Z,95130.97
2019-01-19T19:56:32.423Z,95133.17
2019-01-19T19:58:58.746Z,95137.39
2019-01-19T20:01:25.230Z,95138.93
2019-01-19T20:03:51.592Z,95135.86
2019-01-19T20:06:18.010Z,95136.11
2019-01-19T20:08:44.399Z,95132.01
2019-01-19T20:11:10.738Z,95134.91
2019-01-19T20:13:37.104Z,95138.22
2019-01-19T20:16:03.407Z,95140.88
2019-01-19T20:18:29.798Z,95140.41
2019-01-19T20:20:56.077Z,95138.05
2019-01-19T20:23:22.390Z,95136.52
2019-01-19T20:25:48.745Z,95137.59
2019-01-19T20:28:15.104Z,95136.52
2019-01-19T20:30:41.424Z,95142.02
2019-01-19T20:33:07.786Z,95132.09
2019-01-19T20:35:34.126Z,95137.69
2019-01-19T20:38:00.609Z,95136.77
2019-01-19T20:40:26.952Z,95134.20
2019-01-19T20:42:53.283Z,95139.29
2019-01-19T20:45:19.659Z,95136.40
2019-01-19T20:47:45.958Z,95133.58
2019-01-19T20:50:12.299Z,95135.44
2019-01-19T20:52:38.688Z,95131.02
2019-01-19T20:55:05.017Z,95135.32
2019-01-19T20:57:31.386Z,95134.86
2019-01-19T20:59:57.714Z,95129.56
2019-01-19T21:02:24.059Z,95128.77
2019-01-19T21:04:50.398Z,95131.22
2019-01-19T21:07:16.817Z,95132.50
2019-01-19T21:09:43.145Z,95132.95
2019-01-19T21:12:09.475Z,95136.60
2019-01-19T21:14:35.816Z,95132.87
2019-01-19T21:17:02.162Z,95125.52
2019-01-19T21:19:28.507Z,95133.70
2019-01-19T21:21:54.882Z,95132.25
2019-01-19T21:24:21.217Z,95139.74
2019-01-19T21:26:47.550Z,95134.90
2019-01-19T21:29:13.889Z,95137.38
2019-01-19T21:31:40.237Z,95134.98
2019-01-19T21:34:06.530Z,95134.81
2019-01-19T21:36:32.889Z,95135.52
2019-01-19T21:38:59.244Z,95138.20
2019-01-19T21:41:25.581Z,95149.75
2019-01-19T21:43:51.923Z,95147.33
2019-01-19T21:46:18.281Z,95145.33
2019-01-19T21:48:44.627Z,95143.34
2019-01-19T21:51:10.996Z,95141.94
2019-01-19T21:53:37.346Z,95139.74
2019-01-19T21:56:03.674Z,95141.59
2019-01-19T21:58:30.004Z,95141.69
2019-01-19T22:00:56.347Z,95143.54
2019-01-19T22:03:22.669Z,95139.12
2019-01-19T22:05:49.743Z,95140.77
2019-01-19T22:08:15.327Z,95142.46
2019-01-19T22:10:46.323Z,95141.31
2019-01-19T22:13:08.106Z,95140.52
2019-01-19T22:15:34.429Z,95135.93
2019-01-19T22:18:00.765Z,95137.13
2019-01-19T22:20:29.401Z,95143.25
2019-01-19T22:22:55.802Z,95136.05
2019-01-19T22:25:22.199Z,95134.19
2019-01-19T22:27:48.463Z,95134.02
2019-01-19T22:30:14.798Z,95130.34
2019-01-19T22:32:41.191Z,95126.33
2019-01-19T22:35:07.469Z,95124.22
2019-01-19T22:37:33.835Z,95123.67
2019-01-19T22:40:00.185Z,95127.72
2019-01-19T22:42:26.499Z,95123.87
2019-01-19T22:44:52.849Z,95122.93
2019-01-19T22:47:19.234Z,95123.42
2019-01-19T22:49:45.611Z,95119.08
2019-01-19T22:52:11.999Z,95108.48
2019-01-19T22:54:38.273Z,95111.70
2019-01-19T22:57:04.604Z,95112.78
2019-01-19T22:59:30.972Z,95108.77
2019-01-19T23:01:57.293Z,95106.20
2019-01-19T23:04:23.633Z,95100.16
2019-01-19T23:06:49.957Z,95100.81
2019-01-19T23:09:16.368Z,95104.01
2019-01-19T23:11:42.729Z,95094.00
2019-01-19T23:14:09.058Z,95093.00
2019-01-19T23:16:35.380Z,95090.23
2019-01-19T23:19:01.763Z,95087.88
2019-01-19T23:21:28.075Z,95085.05
2019-01-19T23:23:54.372Z,95091.72
2019-01-19T23:26:20.696Z,95093.58
2019-01-19T23:28:47.058Z,95090.10
2019-01-19T23:31:13.421Z,95089.16
2019-01-19T23:33:39.764Z,95088.56
2019-01-19T23:36:06.116Z,95089.53
2019-01-19T23:38:32.447Z,95083.77
2019-01-19T23:40:58.784Z,95082.95
2019-01-19T23:43:25.141Z,95077.61
2019-01-19T23:45:51.525Z,95078.19
2019-01-19T23:48:17.858Z,95078.55
2019-01-19T23:50:44.190Z,95075.63
2019-01-19T23:53:10.570Z,95077.02
2019-01-19T23:55:36.924Z,95082.86
2019-01-19T23:58:03.288Z,95081.66
